• Join FlightAware (Why Join?)
  • Login
  • US Flag 
08:16AM EDT


 

Airport Tracker/Info


-or-


 

Live Flight TrackerFlight Track Log ✈ UAL481 ✈ 24-Jun-2013 ✈ KALB - KORD

Flight Track Log - Related Links

Times and Time Zones

All times are in EDT time to prevent confusion due to time zone crossing. See the UAL481 flight status page for this flight to view local times or setup timezone preferences in your user account.

Time Position Orientation Groundspeed Altitude Reporting Facility
EDT Latitude Longitude Course Direction KTS MPH feet Rate Location/Type
08:45PM 42.7297 -73.8081 302° West 144 166 1,100  Level Boston Center
08:46PM 42.6939 -73.8411 214° Southwest 193 222 2,700 1,680 Climbing Boston Center
08:46PM 42.7161 -73.8983 298° West 249 287 4,200 2,580 Climbing Boston Center
08:47PM 42.7506 -73.9811 300° West 264 304 7,300 3,240 Climbing Boston Center
08:48PM 42.7889 -74.0669 301° West 271 312 10,700 2,820 Climbing Boston Center
08:49PM 42.8314 -74.1558 303° West 271 312 13,000 2,160 Climbing Boston Center
08:50PM 43.1394 -74.7682 295° West  Level FlightAware Approximate
08:50PM 42.8736 -74.2533 301° West 312 359 15,100  Level Boston Center
08:51PM 43.2092 -74.9302 302° West  Level FlightAware Approximate
08:51PM 42.9278 -74.3769 301° West 348 400 17,200  Level Boston Center
08:52PM 42.9739 -74.4833 301° West 353 406 19,200 1,800 Climbing Boston Center
08:53PM 43.0153 -74.6125 294° West 365 420 20,900 1,800 Climbing Boston Center
08:54PM 43.0125 -74.7600 269° West 365 420 22,800 1,740 Climbing Boston Center
08:55PM 43.0156 -74.9106 272° West 383 441 24,400 1,440 Climbing Boston Center
08:56PM 43.0225 -75.0700 273° West 409 471 25,700 1,380 Climbing Boston Center
08:57PM 43.0269 -75.2322 272° West 422 486 27,200 1,560 Climbing Boston Center
08:58PM 43.0311 -75.3942 272° West 429 494 28,900 1,380 Climbing Boston Center
08:59PM 43.0350 -75.5619 272° West 434 499 30,000 1,140 Climbing Boston Center
09:00PM 43.0386 -75.7300 272° West 441 507 31,200 1,200 Climbing Boston Center
09:01PM 43.0439 -75.9036 272° West 441 507 32,500 1,140 Climbing Boston Center
09:04PM 43.0494 -76.2869 271° West 455 524 35,100 1,020 Climbing Cleveland Center
09:05PM 43.0536 -76.4572 272° West 455 524 36,000 420 Climbing Cleveland Center
09:06PM 43.0572 -76.6219 272° West 455 524 36,000  Level Cleveland Center
09:07PM 43.0606 -76.7867 272° West 449 517 36,000  Level Cleveland Center
09:08PM 43.0606 -76.9742 270° West 449 517 36,000  Level Cleveland Center
09:09PM 43.0633 -77.1389 271° West 444 511 36,000  Level Cleveland Center
09:10PM 43.0661 -77.3036 271° West 438 504 36,000  Level Cleveland Center
09:11PM 43.0686 -77.4711 271° West 438 504 36,000  Level Cleveland Center
09:12PM 43.0689 -77.6389 270° West 438 504 36,000  Level Cleveland Center
09:13PM 43.0708 -77.8036 271° West 438 504 36,000  Level Cleveland Center
09:14PM 43.0706 -77.9656 270° West 438 504 36,000  Level Cleveland Center
09:15PM 43.0719 -78.1333 271° West 438 504 36,000  Level Cleveland Center
09:16PM 43.0711 -78.2925 270° West 438 504 36,000  Level Cleveland Center
09:17PM 43.0697 -78.4403 269° West 438 504 36,000  Level Cleveland Center
09:18PM 43.0686 -78.6025 270° West 438 504 36,000  Level Cleveland Center
09:19PM 43.0711 -78.7672 271° West 438 504 36,000  Level Cleveland Center
09:20PM 43.0736 -78.9292 271° West 438 504 36,000  Level Cleveland Center
09:21PM 43.0833 -79.0667 276° West 420 483 36,000  Level Toronto Center
09:22PM 43.1000 -79.2167 279° West 420 483 36,000  Level Toronto Center
09:23PM 43.1333 -79.3667 287° West 420 483 36,000  Level Toronto Center
09:24PM 43.1667 -79.5500 284° West 420 483 36,000  Level Toronto Center
09:25PM 43.1833 -79.7000 279° West 420 483 36,000  Level Toronto Center
09:26PM 43.2000 -79.8667 278° West 420 483 36,000  Level Toronto Center
09:28PM 43.1693 -80.1333 261° West  Level Estimated
09:29PM 43.1667 -80.3333 261° West 430 495 36,000  Level Toronto Center
09:30PM 43.1667 -80.5000 270° West 430 495 36,000  Level Toronto Center
09:31PM 43.1667 -80.6667 270° West 430 495 36,000  Level Toronto Center
09:32PM 43.1333 -80.8167 253° West 430 495 36,000  Level Toronto Center
09:33PM 43.1333 -80.9833 270° West 430 495 36,000  Level Toronto Center
09:34PM 43.1167 -81.1333 261° West 430 495 36,000  Level Toronto Center
09:35PM 43.0463 -81.1488 261° West  Level Estimated
09:35PM 43.1167 -81.3167 270° West 420 483 36,000  Level Toronto Center
09:36PM 43.1167 -81.4667 270° West 420 483 36,000  Level Toronto Center
09:37PM 43.1167 -81.6167 270° West 420 483 36,000  Level Toronto Center
09:38PM 43.1667 -81.7333 300° West 390 449 36,000  Level Toronto Center
09:39PM 43.2333 -81.8833 301° West 390 449 36,000  Level Toronto Center
09:40PM 43.2500 -82.0167 280° West 400 460 36,000  Level Toronto Center
09:41PM 43.3000 -82.1500 297° West 400 460 36,000  Level Toronto Center
09:42PM 43.3333 -82.3000 287° West 400 460 36,000  Level Toronto Center
09:43PM 43.3667 -82.4500 287° West 400 460 36,000 -360 Level Toronto Center
09:44PM 43.3150 -82.6375 249° West 386 444 35,300 -480 Descending Cleveland Center
09:45PM 43.2708 -82.7814 247° West 392 451 35,000 -180 Descending Cleveland Center
09:46PM 43.2283 -82.9253 248° West 406 467 35,000 -300 Level Cleveland Center
09:47PM 43.1794 -83.0744 246° West 412 474 34,400 -660 Descending Cleveland Center
09:48PM 43.1344 -83.2233 248° West 418 481 33,700 -840 Descending Cleveland Center
09:49PM 43.0872 -83.3719 247° West 418 481 32,800 -900 Descending Cleveland Center
09:50PM 43.0397 -83.5175 246° West 418 481 32,000 -420 Descending Cleveland Center
09:51PM 42.9919 -83.6686 247° West 423 487 32,000  Level Cleveland Center
09:52PM 42.9586 -83.8231 254° West 429 494 32,000  Level Cleveland Center
09:53PM 42.9436 -83.9839 263° West 429 494 32,000  Level Cleveland Center
09:54PM 42.9283 -84.1419 263° West 429 494 32,000  Level Cleveland Center
09:55PM 42.9181 -84.2447 262° West 426 490 32,000  Level Chicago Center
09:56PM 42.9014 -84.4050 262° West 427 491 32,000  Level Chicago Center
09:57PM 42.8856 -84.5653 262° West 428 493 32,000  Level Chicago Center
09:58PM 42.8656 -84.7586 262° West 428 493 32,000  Level Chicago Center
09:59PM 42.8492 -84.9192 262° West 428 493 32,000  Level Chicago Center
10:00PM 42.8311 -85.0825 261° West 433 498 32,000  Level Chicago Center
10:01PM 42.8142 -85.2442 262° West 432 497 32,000  Level Chicago Center
10:02PM 42.7958 -85.4072 261° West 435 501 32,000 -540 Level Chicago Center
10:03PM 42.7739 -85.5672 259° West 431 496 31,000 -1,680 Descending Chicago Center
10:04PM 42.7442 -85.7303 256° West 438 504 28,600 -2,100 Descending Chicago Center
10:05PM 42.7142 -85.8919 256° West 438 504 26,800 -2,460 Descending Chicago Center
10:06PM 42.6889 -86.0369 257° West 399 459 23,600 -3,120 Descending Chicago Center
10:07PM 42.6633 -86.1736 256° West 377 434 20,400 -1,800 Descending Chicago Center
10:08PM 42.6325 -86.3342 255° West 365 420 20,000 -540 Descending Chicago Center
10:09PM 42.6092 -86.4625 256° West 353 406 19,300 -1,320 Descending Chicago Center
10:10PM 42.5867 -86.5853 256° West 340 391 17,400 -1,980 Descending Chicago Center
10:11PM 42.5642 -86.7050 256° West 329 379 15,300 -1,980 Descending Chicago Center
10:12PM 42.5336 -86.8236 251° West 334 384 13,400 -1,620 Descending Chicago Center
10:13PM 42.5050 -86.9314 250° West 312 359 12,100 -1,620 Descending Chicago Center
10:14PM 42.4767 -87.0353 250° West 297 342 10,100 -1,080 Descending Chicago Center
10:15PM 42.4467 -87.1386 249° West 295 339 10,000 -120 Descending Chicago Center
10:16PM 42.4186 -87.2408 250° West 291 335 9,900 -540 Descending Chicago Center
10:17PM 42.3519 -87.3150 219° Southwest 281 323 9,000 -1,140 Descending Chicago Center
10:18PM 42.2844 -87.3658 209° Southwest 271 312 7,600 -1,020 Descending Chicago Center
10:19PM 42.2208 -87.4133 209° Southwest 265 305 7,000 -300 Descending Chicago Center
10:20PM 42.1558 -87.4592 208° Southwest 265 305 7,000  Level Chicago Center
10:21PM 42.0919 -87.5047 208° Southwest 263 303 7,000 -600 Level Chicago Center
10:22PM 42.0300 -87.5528 210° Southwest 260 299 5,800 -1,080 Descending Chicago Center
10:23PM 41.9897 -87.6131 228° Southwest 225 259 4,800 -1,200 Descending Chicago Center
10:24PM 41.9828 -87.6950 264° West 194 223 3,400 -1,080 Descending Chicago Center
10:25PM 41.9833 -87.7617 271° West 185 213 2,700 -840 Descending Chicago Center
10:26PM 41.9839 -87.8189 271° West 170 196 1,700 -840 Descending Chicago Center
10:27PM 41.9839 -87.8661 270° West 151 174 1,000 -720 Descending Chicago Center